createdAt,value
2023-03-15T00:01:46.845Z,5.00
2023-03-15T00:04:15.363Z,5.40
2023-03-15T00:06:45.073Z,4.80
2023-03-15T00:09:13.568Z,5.10
2023-03-15T00:11:45.724Z,5.00
2023-03-15T00:14:14.308Z,5.40
2023-03-15T00:16:43.404Z,5.10
2023-03-15T00:19:12.097Z,5.20
2023-03-15T00:21:43.545Z,5.00
2023-03-15T00:24:11.818Z,4.90
2023-03-15T00:26:41.123Z,3.90
2023-03-15T00:29:10.122Z,3.90
2023-03-15T00:31:39.833Z,5.70
2023-03-15T00:34:08.205Z,5.00
2023-03-15T00:36:36.692Z,5.10
2023-03-15T00:39:05.994Z,5.00
2023-03-15T00:41:34.886Z,4.80
2023-03-15T00:44:06.239Z,5.30
2023-03-15T00:46:35.287Z,5.10
2023-03-15T00:49:03.918Z,5.50
2023-03-15T00:51:37.725Z,5.40
2023-03-15T00:54:06.105Z,6.50
2023-03-15T00:56:37.660Z,6.10
2023-03-15T00:59:08.102Z,5.30
2023-03-15T01:01:36.590Z,5.30
2023-03-15T01:04:06.743Z,5.00
2023-03-15T01:06:35.077Z,5.30
2023-03-15T01:09:04.240Z,5.80
2023-03-15T01:14:03.902Z,5.30
2023-03-15T01:16:34.535Z,5.40
2023-03-15T01:19:03.426Z,5.70
2023-03-15T01:21:32.011Z,6.00
2023-03-15T01:24:00.904Z,5.30
2023-03-15T01:26:29.693Z,5.60
2023-03-15T01:28:58.483Z,6.00
2023-03-15T01:31:29.233Z,6.00
2023-03-15T01:33:58.477Z,5.40
2023-03-15T01:36:29.360Z,5.60
2023-03-15T01:38:58.249Z,5.60
2023-03-15T01:41:33.294Z,6.10
2023-03-15T01:44:01.568Z,5.30
2023-03-15T01:46:34.803Z,5.40
2023-03-15T01:49:25.999Z,6.60
2023-03-15T01:52:18.317Z,6.20
2023-03-15T01:55:15.864Z,6.60
2023-03-15T01:57:57.682Z,5.40
2023-03-15T02:00:28.023Z,5.50
2023-03-15T02:03:09.187Z,6.10
2023-03-15T02:05:46.373Z,6.50
2023-03-15T02:08:20.591Z,6.90
2023-03-15T02:10:52.198Z,6.70
2023-03-15T02:13:22.987Z,6.10
2023-03-15T02:15:53.767Z,6.80
2023-03-15T02:18:37.153Z,5.90
2023-03-15T02:21:14.961Z,6.20
2023-03-15T02:23:44.664Z,5.70
2023-03-15T02:26:48.894Z,6.10
2023-03-15T02:29:17.986Z,6.10
2023-03-15T02:31:46.508Z,6.60
2023-03-15T02:34:15.360Z,6.20
2023-03-15T02:36:43.944Z,6.40
2023-03-15T02:39:16.891Z,6.90
2023-03-15T02:41:54.388Z,6.40
2023-03-15T02:44:36.021Z,6.50
2023-03-15T02:47:07.783Z,6.00
2023-03-15T02:49:39.557Z,6.10
2023-03-15T02:52:09.978Z,5.60
2023-03-15T02:54:39.583Z,5.70
2023-03-15T02:57:13.397Z,6.20
2023-03-15T02:59:43.219Z,6.70
2023-03-15T03:02:13.855Z,6.10
2023-03-15T03:04:45.903Z,6.30
2023-03-15T03:07:14.385Z,6.60
2023-03-15T03:09:51.677Z,5.90
2023-03-15T03:12:20.877Z,6.10
2023-03-15T03:14:53.352Z,6.70
2023-03-15T03:17:25.115Z,6.40
2023-03-15T03:19:53.798Z,6.70
2023-03-15T03:22:27.298Z,5.70
2023-03-15T03:24:56.451Z,5.00
2023-03-15T03:27:25.591Z,6.40
2023-03-15T03:29:54.491Z,6.80
2023-03-15T03:32:22.909Z,7.00
2023-03-15T03:34:55.752Z,6.10
2023-03-15T03:37:24.644Z,5.70
2023-03-15T03:40:08.586Z,6.40
2023-03-15T03:42:37.479Z,6.20
2023-03-15T03:45:07.373Z,6.40
2023-03-15T03:47:39.362Z,7.00
2023-03-15T03:50:08.804Z,7.20
2023-03-15T03:52:37.875Z,6.90
2023-03-15T03:55:10.405Z,7.60
2023-03-15T03:57:38.927Z,7.00
2023-03-15T04:00:10.337Z,7.20
2023-03-15T04:04:35.263Z,7.50
2023-03-15T04:07:04.390Z,7.20
2023-03-15T04:09:38.720Z,7.60
2023-03-15T04:12:10.613Z,7.40
2023-03-15T04:14:42.740Z,6.70
2023-03-15T04:17:12.865Z,6.60
2023-03-15T04:19:47.125Z,6.50
2023-03-15T04:22:19.358Z,6.80
2023-03-15T04:28:04.860Z,6.50
2023-03-15T04:30:59.265Z,7.20
2023-03-15T04:33:41.150Z,7.70
2023-03-15T04:36:27.360Z,7.70
2023-03-15T04:39:15.294Z,7.30
2023-03-15T04:41:50.710Z,6.90
2023-03-15T04:44:45.439Z,6.30
2023-03-15T04:47:24.877Z,5.10
2023-03-15T04:50:07.354Z,6.90
2023-03-15T04:52:49.800Z,6.90
2023-03-15T04:55:47.673Z,6.70
2023-03-15T04:58:38.898Z,6.50
2023-03-15T05:01:30.737Z,5.90
2023-03-15T05:04:20.125Z,5.80
2023-03-15T05:07:04.969Z,6.30
2023-03-15T05:09:52.080Z,6.90
2023-03-15T05:12:40.428Z,7.20
2023-03-15T05:15:47.415Z,6.80
2023-03-15T05:18:35.971Z,6.80
2023-03-15T05:21:28.663Z,6.40
2023-03-15T05:24:20.149Z,6.50
2023-03-15T05:26:55.798Z,6.80
2023-03-15T05:29:57.351Z,7.00
2023-03-15T05:32:45.095Z,7.00
2023-03-15T05:35:32.747Z,7.00
2023-03-15T05:38:33.560Z,7.30
2023-03-15T05:41:24.084Z,6.60
2023-03-15T05:44:23.366Z,6.50
2023-03-15T05:47:10.696Z,6.30
2023-03-15T05:49:50.950Z,7.20
2023-03-15T05:52:37.354Z,6.70
2023-03-15T05:55:24.884Z,6.70
2023-03-15T05:58:13.028Z,7.20
2023-03-15T06:01:04.759Z,6.70
2023-03-15T06:03:47.134Z,6.90
2023-03-15T06:06:19.751Z,7.00
2023-03-15T06:08:48.130Z,6.20
2023-03-15T06:11:18.347Z,6.60
2023-03-15T06:13:47.345Z,6.60
2023-03-15T06:16:35.021Z,7.00
2023-03-15T06:19:04.790Z,6.50
2023-03-15T06:21:33.579Z,7.40
2023-03-15T06:24:06.787Z,7.70
2023-03-15T06:26:36.177Z,7.00
2023-03-15T06:29:05.072Z,7.00
2023-03-15T06:31:34.276Z,6.20
2023-03-15T06:34:05.210Z,6.40
2023-03-15T06:39:08.427Z,6.50
2023-03-15T06:41:37.011Z,6.00
2023-03-15T06:44:10.102Z,6.50
2023-03-15T06:46:40.941Z,6.60
2023-03-15T06:49:12.803Z,6.40
2023-03-15T06:51:45.384Z,6.90
2023-03-15T06:54:13.763Z,6.60
2023-03-15T06:56:42.555Z,6.00
2023-03-15T06:59:12.673Z,5.90
2023-03-15T07:01:42.450Z,5.40
2023-03-15T07:04:11.279Z,5.70
2023-03-15T07:06:40.794Z,6.00
2023-03-15T07:09:09.179Z,6.50
2023-03-15T07:11:37.860Z,6.80
2023-03-15T07:14:06.442Z,6.30
2023-03-15T07:16:35.235Z,6.60
2023-03-15T07:19:04.134Z,6.40
2023-03-15T07:21:33.732Z,6.00
2023-03-15T07:24:02.316Z,5.90
2023-03-15T07:26:30.800Z,5.70
2023-03-15T07:28:59.898Z,6.40
2023-03-15T07:31:28.490Z,6.50
2023-03-15T07:33:57.684Z,6.50
2023-03-15T07:36:26.677Z,5.60
2023-03-15T07:38:55.464Z,6.10
2023-03-15T07:41:26.300Z,5.80
2023-03-15T07:44:09.835Z,6.40
2023-03-15T07:46:38.776Z,6.50
2023-03-15T07:49:07.634Z,6.80
2023-03-15T07:51:36.226Z,6.10
2023-03-15T07:54:11.541Z,6.00
2023-03-15T07:56:40.839Z,6.40
2023-03-15T07:59:10.286Z,6.20
2023-03-15T08:01:39.068Z,6.20
2023-03-15T08:04:07.723Z,6.60
2023-03-15T08:06:37.036Z,6.10
2023-03-15T08:09:06.947Z,5.60
2023-03-15T08:14:10.660Z,5.60
2023-03-15T08:16:39.614Z,5.00
2023-03-15T08:21:39.183Z,5.30
2023-03-15T08:24:08.380Z,5.50
2023-03-15T08:26:38.311Z,5.10
2023-03-15T08:29:06.682Z,4.60
2023-03-15T08:31:35.284Z,5.50
2023-03-15T08:34:04.377Z,5.10
2023-03-15T08:36:40.350Z,4.90
2023-03-15T08:39:08.805Z,4.80
2023-03-15T08:41:37.902Z,4.10
2023-03-15T08:44:11.707Z,4.50
2023-03-15T08:46:40.899Z,4.70
2023-03-15T08:49:09.496Z,4.80
2023-03-15T08:51:39.005Z,4.90
2023-03-15T08:54:07.790Z,5.10
2023-03-15T08:56:42.630Z,4.00
2023-03-15T08:59:12.811Z,3.70
2023-03-15T09:01:45.043Z,4.30
2023-03-15T09:04:14.804Z,5.00
2023-03-15T09:06:44.331Z,4.30
2023-03-15T09:09:17.742Z,4.90
2023-03-15T09:11:46.327Z,4.20
2023-03-15T09:14:14.795Z,4.40
2023-03-15T09:16:43.447Z,4.40
2023-03-15T09:19:12.168Z,5.30
2023-03-15T09:21:41.456Z,4.10
2023-03-15T09:24:12.106Z,4.40
2023-03-15T09:26:42.533Z,3.80
2023-03-15T09:29:12.661Z,4.40
2023-03-15T09:31:42.060Z,4.20
2023-03-15T09:34:10.747Z,4.20
2023-03-15T09:36:39.344Z,4.50
2023-03-15T09:39:08.739Z,4.20
2023-03-15T09:41:45.230Z,4.70
2023-03-15T09:44:21.380Z,5.10
2023-03-15T09:46:53.183Z,5.20
2023-03-15T09:49:59.606Z,5.10
2023-03-15T09:52:51.029Z,5.60
2023-03-15T09:55:22.167Z,5.50
2023-03-15T09:57:58.303Z,4.60
2023-03-15T10:00:45.861Z,4.20
2023-03-15T10:03:40.039Z,4.60
2023-03-15T10:06:23.084Z,4.80
2023-03-15T10:08:57.491Z,4.50
2023-03-15T10:12:04.825Z,4.20
2023-03-15T10:14:40.040Z,4.20
2023-03-15T10:17:12.490Z,4.20
2023-03-15T10:19:52.246Z,3.70
2023-03-15T10:22:31.891Z,4.00
2023-03-15T10:25:11.746Z,3.80
2023-03-15T10:27:43.889Z,4.40
2023-03-15T10:30:26.318Z,3.90
2023-03-15T10:33:23.395Z,3.60
2023-03-15T10:35:56.120Z,3.10
2023-03-15T10:38:27.914Z,4.50
2023-03-15T10:40:59.538Z,4.80
2023-03-15T10:43:37.399Z,3.00
2023-03-15T10:46:14.275Z,3.10
2023-03-15T10:48:53.941Z,3.70
2023-03-15T10:51:24.840Z,3.90
2023-03-15T10:54:07.731Z,4.50
2023-03-15T10:56:49.155Z,4.10
2023-03-15T11:01:48.463Z,4.20
2023-03-15T11:04:24.362Z,2.90
2023-03-15T11:06:58.545Z,3.10
2023-03-15T11:09:27.337Z,3.70
2023-03-15T11:12:04.113Z,3.60
2023-03-15T11:14:37.306Z,4.00
2023-03-15T11:17:07.848Z,4.10
2023-03-15T11:19:39.701Z,3.40
2023-03-15T11:22:13.314Z,4.50
2023-03-15T11:24:42.051Z,4.30
2023-03-15T11:27:12.629Z,4.80
2023-03-15T11:29:52.172Z,4.10
2023-03-15T11:32:23.180Z,3.70
2023-03-15T11:35:08.615Z,4.10
2023-03-15T11:37:47.321Z,3.90
2023-03-15T11:40:22.790Z,3.90
2023-03-15T11:42:55.962Z,3.50
2023-03-15T11:45:37.276Z,3.50
2023-03-15T11:48:41.077Z,3.80
2023-03-15T11:51:11.596Z,3.20
2023-03-15T11:54:04.547Z,3.40
2023-03-15T11:56:45.012Z,3.40
2023-03-15T11:59:25.701Z,3.90
2023-03-15T12:02:01.744Z,4.10
2023-03-15T12:04:33.504Z,4.10
2023-03-15T12:07:07.005Z,3.50
2023-03-15T12:09:38.659Z,3.60
2023-03-15T12:12:24.921Z,4.30
2023-03-15T12:15:19.197Z,4.10
2023-03-15T12:17:47.839Z,3.70
2023-03-15T12:20:18.477Z,3.80
2023-03-15T12:23:18.191Z,4.30
2023-03-15T12:26:05.822Z,3.90
2023-03-15T12:28:50.807Z,4.30
2023-03-15T12:31:19.228Z,4.00
2023-03-15T12:33:50.106Z,4.20
2023-03-15T12:36:36.320Z,4.10
2023-03-15T12:39:14.209Z,4.30
2023-03-15T12:41:50.282Z,4.60
2023-03-15T12:44:19.166Z,4.80
2023-03-15T12:46:47.549Z,4.20
2023-03-15T12:49:18.899Z,4.80
2023-03-15T12:52:04.923Z,3.90
2023-03-15T12:54:39.659Z,4.20
2023-03-15T12:57:13.632Z,3.90
2023-03-15T12:59:55.696Z,4.10
2023-03-15T13:02:49.796Z,4.10
2023-03-15T13:05:25.378Z,3.50
2023-03-15T13:07:57.542Z,4.30
2023-03-15T13:10:59.923Z,4.70
2023-03-15T13:13:28.305Z,4.40
2023-03-15T13:16:38.590Z,4.00
2023-03-15T13:19:24.223Z,4.20
2023-03-15T13:22:22.538Z,4.40
2023-03-15T13:25:10.067Z,4.40
2023-03-15T13:27:44.455Z,4.30
2023-03-15T13:30:52.765Z,4.70
2023-03-15T13:33:22.213Z,4.90
2023-03-15T13:35:55.698Z,4.30
2023-03-15T13:38:31.086Z,4.70
2023-03-15T13:41:02.209Z,4.50
2023-03-15T13:43:36.439Z,3.60
2023-03-15T13:46:09.658Z,3.80
2023-03-15T13:48:41.689Z,3.90
2023-03-15T13:51:29.323Z,3.80
2023-03-15T13:54:02.117Z,3.60
2023-03-15T13:56:49.174Z,3.60
2023-03-15T13:59:18.233Z,3.30
2023-03-15T14:01:46.790Z,3.80
2023-03-15T14:04:17.566Z,3.90
2023-03-15T14:06:48.692Z,3.50
2023-03-15T14:09:24.449Z,3.90
2023-03-15T14:12:05.653Z,4.10
2023-03-15T14:14:39.179Z,4.80
2023-03-15T14:17:18.169Z,4.30
2023-03-15T14:19:53.574Z,4.40
2023-03-15T14:22:22.219Z,4.70
2023-03-15T14:24:57.645Z,4.60
2023-03-15T14:27:27.250Z,4.20
2023-03-15T14:30:00.438Z,4.60
2023-03-15T14:32:34.924Z,4.10
2023-03-15T14:35:30.393Z,3.40
2023-03-15T14:38:08.824Z,3.90
2023-03-15T14:40:38.834Z,3.40
2023-03-15T14:45:37.935Z,3.50
2023-03-15T14:48:11.150Z,3.80
2023-03-15T14:50:41.763Z,3.60
2023-03-15T14:53:14.863Z,3.30
2023-03-15T14:55:49.282Z,3.40
2023-03-15T14:58:21.675Z,3.60
2023-03-15T15:00:54.253Z,3.80
2023-03-15T15:03:30.502Z,3.80
2023-03-15T15:05:59.676Z,3.60
2023-03-15T15:08:28.287Z,4.00
2023-03-15T15:10:57.181Z,3.90
2023-03-15T15:13:29.663Z,3.80
2023-03-15T15:18:31.315Z,3.60
2023-03-15T15:21:11.185Z,4.20
2023-03-15T15:23:57.023Z,4.10
2023-03-15T15:26:28.834Z,3.90
2023-03-15T15:28:58.055Z,3.60
2023-03-15T15:31:27.447Z,4.00
2023-03-15T15:34:04.127Z,3.70
2023-03-15T15:36:38.544Z,4.10
2023-03-15T15:39:29.987Z,4.50
2023-03-15T15:41:58.343Z,4.40
2023-03-15T15:44:27.250Z,4.30
2023-03-15T15:46:56.335Z,4.90
2023-03-15T15:49:24.928Z,4.80
2023-03-15T15:51:54.530Z,4.20
2023-03-15T15:54:26.193Z,4.80
2023-03-15T15:56:56.832Z,5.30
2023-03-15T15:59:26.078Z,4.70
2023-03-15T16:02:02.955Z,5.80
2023-03-15T16:04:33.229Z,5.80
2023-03-15T16:07:02.684Z,6.20
2023-03-15T16:09:32.230Z,7.00
2023-03-15T16:12:03.191Z,7.90
2023-03-15T16:14:34.027Z,8.00
2023-03-15T16:17:10.290Z,8.30
2023-03-15T16:22:17.702Z,8.90
2023-03-15T16:24:53.776Z,9.10
2023-03-15T16:27:23.594Z,8.60
2023-03-15T16:29:53.496Z,10.00
2023-03-15T16:32:36.870Z,10.90
2023-03-15T16:35:18.122Z,11.00
2023-03-15T16:37:47.726Z,11.20
2023-03-15T16:40:22.356Z,12.10
2023-03-15T16:42:53.400Z,11.50
2023-03-15T16:45:22.602Z,11.70
2023-03-15T16:47:56.809Z,12.10
2023-03-15T16:50:26.229Z,11.30
2023-03-15T16:52:55.893Z,11.50
2023-03-15T16:55:26.058Z,12.20
2023-03-15T16:57:56.080Z,11.70
2023-03-15T17:00:25.914Z,11.80
2023-03-15T17:02:55.127Z,11.80
2023-03-15T17:05:32.442Z,11.80
2023-03-15T17:08:01.173Z,12.40
2023-03-15T17:13:02.845Z,13.10
2023-03-15T17:15:32.459Z,12.50
2023-03-15T17:18:03.408Z,12.10
2023-03-15T17:20:34.750Z,11.80
2023-03-15T17:23:04.804Z,13.10
2023-03-15T17:25:34.138Z,12.40
2023-03-15T17:28:05.015Z,12.40
2023-03-15T17:30:35.329Z,12.90
2023-03-15T17:33:05.281Z,12.30
2023-03-15T17:35:44.017Z,12.60
2023-03-15T17:38:18.076Z,11.90
2023-03-15T17:40:48.885Z,12.40
2023-03-15T17:43:18.034Z,12.40
2023-03-15T17:45:48.062Z,11.90
2023-03-15T17:48:17.047Z,13.30
2023-03-15T17:50:47.163Z,12.70
2023-03-15T17:53:19.028Z,10.30
2023-03-15T17:55:48.222Z,13.10
2023-03-15T17:58:24.125Z,13.50
2023-03-15T18:00:54.961Z,12.60
2023-03-15T18:05:52.208Z,13.10
2023-03-15T18:08:34.709Z,13.50
2023-03-15T18:11:04.237Z,14.20
2023-03-15T18:13:33.616Z,14.40
2023-03-15T18:16:14.734Z,14.50
2023-03-15T18:18:43.318Z,13.60
2023-03-15T18:21:14.527Z,13.10
2023-03-15T18:23:47.720Z,13.90
2023-03-15T18:26:16.409Z,14.60
2023-03-15T18:28:45.091Z,14.40
2023-03-15T18:31:20.881Z,14.70
2023-03-15T18:33:49.623Z,15.90
2023-03-15T18:36:19.251Z,15.80
2023-03-15T18:38:49.003Z,15.70
2023-03-15T18:41:20.845Z,15.70
2023-03-15T18:43:50.413Z,14.90
2023-03-15T18:46:22.919Z,14.90
2023-03-15T18:48:54.369Z,15.70
2023-03-15T18:51:28.355Z,16.90
2023-03-15T18:53:56.942Z,16.30
2023-03-15T18:56:28.398Z,15.90
2023-03-15T18:58:56.981Z,15.10
2023-03-15T19:01:26.536Z,14.70
2023-03-15T19:03:55.887Z,10.90
2023-03-15T19:06:31.357Z,15.60
2023-03-15T19:09:00.226Z,15.90
2023-03-15T19:11:31.891Z,16.30
2023-03-15T19:14:03.540Z,16.60
2023-03-15T19:16:32.966Z,12.10
2023-03-15T19:19:01.630Z,15.60
2023-03-15T19:21:32.469Z,15.00
2023-03-15T19:24:01.154Z,15.10
2023-03-15T19:26:30.457Z,15.80
2023-03-15T19:28:59.651Z,15.50
2023-03-15T19:31:28.089Z,17.00
2023-03-15T19:33:59.499Z,15.70
2023-03-15T19:36:28.080Z,15.80
2023-03-15T19:38:57.678Z,16.00
2023-03-15T19:43:56.383Z,16.00
2023-03-15T19:46:27.783Z,16.40
2023-03-15T19:48:56.317Z,15.80
2023-03-15T19:51:25.131Z,15.70
2023-03-15T19:53:55.943Z,14.40
2023-03-15T19:56:24.325Z,14.40
2023-03-15T19:58:57.346Z,14.40
2023-03-15T20:01:26.048Z,14.50
2023-03-15T20:03:54.564Z,15.20
2023-03-15T20:06:23.370Z,15.60
2023-03-15T20:08:52.170Z,16.00
2023-03-15T20:11:25.391Z,15.60
2023-03-15T20:13:54.041Z,14.40
2023-03-15T20:16:22.592Z,14.20
2023-03-15T20:18:56.143Z,14.20
2023-03-15T20:21:24.721Z,14.60
2023-03-15T20:23:53.196Z,14.50
2023-03-15T20:26:24.134Z,15.00
2023-03-15T20:28:52.921Z,15.30
2023-03-15T20:31:23.722Z,15.00
2023-03-15T20:36:22.671Z,15.40
2023-03-15T20:38:51.051Z,14.30
2023-03-15T20:41:23.838Z,15.00
2023-03-15T20:43:52.522Z,15.00
2023-03-15T20:46:22.721Z,14.70
2023-03-15T20:48:53.186Z,15.20
2023-03-15T20:51:22.181Z,15.10
2023-03-15T20:53:51.259Z,15.40
2023-03-15T20:56:20.049Z,11.20
2023-03-15T20:58:48.959Z,15.50
2023-03-15T21:01:22.547Z,14.60
2023-03-15T21:03:54.800Z,14.80
2023-03-15T21:06:23.702Z,15.00
2023-03-15T21:08:53.108Z,15.30
2023-03-15T21:11:21.897Z,15.00
2023-03-15T21:13:50.478Z,15.30
2023-03-15T21:16:21.437Z,15.40
2023-03-15T21:18:52.665Z,15.40
2023-03-15T21:21:24.942Z,15.60
2023-03-15T21:23:54.642Z,14.20
2023-03-15T21:26:23.330Z,14.10
2023-03-15T21:28:57.631Z,15.10
2023-03-15T21:31:26.262Z,15.30
2023-03-15T21:33:56.454Z,15.20
2023-03-15T21:36:24.832Z,16.50
2023-03-15T21:38:53.209Z,15.40
2023-03-15T21:41:22.944Z,14.50
2023-03-15T21:43:51.723Z,14.50
2023-03-15T21:46:20.261Z,14.70
2023-03-15T21:48:48.962Z,15.50
2023-03-15T21:51:17.664Z,15.70
2023-03-15T21:53:51.779Z,14.50
2023-03-15T21:56:20.159Z,16.60
2023-03-15T21:58:48.549Z,15.80
2023-03-15T22:01:17.384Z,15.20
2023-03-15T22:03:46.636Z,14.40
2023-03-15T22:06:16.961Z,15.10
2023-03-15T22:08:45.650Z,15.70
2023-03-15T22:11:14.126Z,15.00
2023-03-15T22:13:43.224Z,15.70
2023-03-15T22:16:12.320Z,15.30
2023-03-15T22:18:41.114Z,14.40
2023-03-15T22:21:11.579Z,14.40
2023-03-15T22:28:41.703Z,14.60
2023-03-15T22:31:11.478Z,15.10
2023-03-15T22:33:40.929Z,14.90
2023-03-15T22:36:11.147Z,15.00
2023-03-15T22:38:39.832Z,14.30
2023-03-15T22:41:10.466Z,15.50
2023-03-15T22:46:09.306Z,15.60
2023-03-15T22:48:38.168Z,15.30
2023-03-15T22:51:10.129Z,15.70
2023-03-15T22:53:39.128Z,13.10
2023-03-15T22:56:07.717Z,14.10
2023-03-15T22:58:36.811Z,14.50
2023-03-15T23:01:06.968Z,14.60
2023-03-15T23:03:37.682Z,15.50
2023-03-15T23:06:06.770Z,14.30
2023-03-15T23:08:35.556Z,14.70
2023-03-15T23:11:04.348Z,14.70
2023-03-15T23:13:32.931Z,14.20
2023-03-15T23:16:04.457Z,15.40
2023-03-15T23:18:34.505Z,15.00
2023-03-15T23:21:11.913Z,14.30
2023-03-15T23:23:43.348Z,14.90
2023-03-15T23:26:13.166Z,14.90
2023-03-15T23:28:44.006Z,14.00
2023-03-15T23:31:12.649Z,14.10
2023-03-15T23:33:41.172Z,15.30
2023-03-15T23:36:09.669Z,14.50
2023-03-15T23:38:38.252Z,14.00
2023-03-15T23:41:09.392Z,14.30
2023-03-15T23:43:38.701Z,14.50
2023-03-15T23:46:07.520Z,13.30
2023-03-15T23:48:37.405Z,14.00
2023-03-15T23:51:08.817Z,14.60
2023-03-15T23:53:42.052Z,14.40
2023-03-15T23:56:11.247Z,14.80
2023-03-15T23:58:39.626Z,13.50
